Time;durP1;ratioP1;P1;durP2;ratioP2;P2;SDS_P1;SDS_P2;PMS_P1;PMS_P2;Temp;Humidity;BMP_temperature;BMP_pressure;BME280_temperature;BME280_humidity;BME280_pressure;Samples;Min_cycle;Max_cycle;Signal;HPM_P1;HPM_P2
2024/01/23 00:01:06;;;;;;;11.50;2.97;;;8.10;99.90;;;;;;5095269;28;20316;-46
2024/01/23 00:03:33;;;;;;;14.70;3.03;;;8.10;99.90;;;;;;5113774;28;20227;-44
2024/01/23 00:06:00;;;;;;;6.90;1.30;;;8.10;99.90;;;;;;5113731;28;20248;-46
2024/01/23 00:08:25;;;;;;;20.00;2.63;;;8.10;99.90;;;;;;5113755;28;20193;-43
2024/01/23 00:10:51;;;;;;;15.53;2.67;;;8.00;99.90;;;;;;5095239;28;20733;-45
2024/01/23 00:13:22;;;;;;;7.23;1.70;;;8.00;99.90;;;;;;5113766;28;20523;-44
2024/01/23 00:15:48;;;;;;;15.03;2.90;;;8.10;99.90;;;;;;5113408;28;20191;-44
2024/01/23 00:18:14;;;;;;;21.20;3.87;;;8.00;99.90;;;;;;5095795;28;20667;-45
2024/01/23 00:20:40;;;;;;;20.60;3.67;;;8.00;99.90;;;;;;5113650;28;20573;-44
2024/01/23 00:23:05;;;;;;;26.30;3.70;;;8.00;99.90;;;;;;5113384;28;20217;-46
2024/01/23 00:25:31;;;;;;;17.97;3.20;;;8.00;99.90;;;;;;5113287;28;20196;-45
2024/01/23 00:28:00;;;;;;;13.13;2.60;;;8.00;99.90;;;;;;5113683;28;20177;-44
2024/01/23 00:30:28;;;;;;;17.27;3.07;;;8.00;99.90;;;;;;5113215;28;20186;-45
2024/01/23 00:32:54;;;;;;;16.93;2.47;;;8.00;99.90;;;;;;5113549;28;20575;-45
2024/01/23 00:35:20;;;;;;;17.20;3.53;;;8.10;99.90;;;;;;5095066;28;20300;-46
2024/01/23 00:37:48;;;;;;;9.00;1.70;;;8.00;99.90;;;;;;5113221;28;20205;-46
2024/01/23 00:40:14;;;;;;;17.97;2.87;;;8.00;99.90;;;;;;5113474;28;20177;-46
2024/01/23 00:42:39;;;;;;;12.37;2.70;;;8.10;99.90;;;;;;5115804;28;20227;-47
2024/01/23 00:45:05;;;;;;;20.53;3.50;;;8.10;99.90;;;;;;5117108;28;20176;-46
2024/01/23 00:47:33;;;;;;;14.20;3.23;;;8.00;99.90;;;;;;5116667;28;20681;-47
2024/01/23 00:49:59;;;;;;;13.20;2.60;;;8.10;99.90;;;;;;5116916;28;20186;-46
2024/01/23 00:52:25;;;;;;;18.43;3.17;;;8.00;99.90;;;;;;5116624;28;20204;-47
2024/01/23 00:54:50;;;;;;;21.70;2.83;;;8.00;99.90;;;;;;5116725;28;20183;-47
2024/01/23 00:57:19;;;;;;;20.13;3.73;;;8.00;99.90;;;;;;5098267;28;20291;-45
2024/01/23 00:59:44;;;;;;;21.80;3.33;;;8.00;99.90;;;;;;5116809;28;20582;-46
2024/01/23 01:02:10;;;;;;;22.07;3.27;;;8.00;99.90;;;;;;5116904;28;20174;-47
2024/01/23 01:04:35;;;;;;;23.97;4.37;;;8.00;99.90;;;;;;5116433;28;20179;-46
2024/01/23 01:07:01;;;;;;;13.37;3.10;;;7.90;99.90;;;;;;5116392;28;20247;-47
2024/01/23 01:09:28;;;;;;;10.63;2.17;;;7.90;99.90;;;;;;5116609;28;20175;-46
2024/01/23 01:11:54;;;;;;;10.27;2.67;;;7.90;99.90;;;;;;5116152;28;20214;-44
2024/01/23 01:14:19;;;;;;;13.53;2.80;;;7.90;99.90;;;;;;5116267;28;20179;-44
2024/01/23 01:16:45;;;;;;;18.43;3.27;;;7.90;99.90;;;;;;5116186;28;20198;-45
2024/01/23 01:19:10;;;;;;;15.93;2.27;;;7.90;99.90;;;;;;5116114;28;20236;-45
2024/01/23 01:21:37;;;;;;;19.10;2.87;;;7.90;99.90;;;;;;5116328;28;20178;-45
2024/01/23 01:24:05;;;;;;;17.87;3.17;;;8.00;99.90;;;;;;5115998;28;20706;-45
2024/01/23 01:26:34;;;;;;;24.17;2.97;;;8.00;99.90;;;;;;5116152;28;20209;-46
2024/01/23 01:29:00;;;;;;;9.67;2.03;;;8.00;99.90;;;;;;5116389;28;20178;-45
2024/01/23 01:31:29;;;;;;;14.53;3.00;;;8.00;99.90;;;;;;5116387;28;20211;-43
2024/01/23 01:33:54;;;;;;;17.97;2.53;;;8.00;99.90;;;;;;5116087;28;20170;-45
2024/01/23 01:36:20;;;;;;;12.13;2.13;;;8.00;99.90;;;;;;5115344;28;20565;-44
2024/01/23 01:38:49;;;;;;;16.17;2.23;;;8.00;99.90;;;;;;5115794;28;20168;-45
2024/01/23 01:41:15;;;;;;;11.97;2.63;;;8.00;99.90;;;;;;5115974;28;20526;-44
2024/01/23 01:43:41;;;;;;;13.03;2.57;;;8.00;99.90;;;;;;5116510;28;20178;-46
2024/01/23 01:46:24;;;;;;;12.47;2.30;;;8.00;99.90;;;;;;5116507;28;20286;-44
2024/01/23 01:48:51;;;;;;;9.10;2.00;;;8.00;99.90;;;;;;5116066;28;20257;-44
2024/01/23 01:51:23;;;;;;;17.27;2.93;;;8.00;99.90;;;;;;5115518;28;20226;-47
2024/01/23 01:53:49;;;;;;;17.13;3.00;;;8.00;99.90;;;;;;5114653;28;20160;-45
2024/01/23 01:56:17;;;;;;;22.90;3.60;;;8.00;99.90;;;;;;5097285;28;20240;-46
2024/01/23 01:58:45;;;;;;;17.83;2.60;;;8.00;99.90;;;;;;5115715;28;20188;-44
2024/01/23 02:01:11;;;;;;;21.03;2.43;;;8.00;99.90;;;;;;5115372;28;20684;-45
2024/01/23 02:03:41;;;;;;;10.57;2.23;;;8.00;99.90;;;;;;5097156;28;20366;-44
2024/01/23 02:06:13;;;;;;;15.17;2.93;;;8.00;99.90;;;;;;5115621;28;20555;-44
2024/01/23 02:08:39;;;;;;;17.33;2.83;;;8.00;99.90;;;;;;5115306;28;20697;-45
2024/01/23 02:11:05;;;;;;;11.37;1.77;;;8.00;99.90;;;;;;5114933;28;20201;-45
2024/01/23 02:13:31;;;;;;;16.47;2.67;;;8.00;99.90;;;;;;5097005;28;20264;-45
2024/01/23 02:15:56;;;;;;;13.77;2.50;;;8.00;99.90;;;;;;5115041;28;20261;-45
2024/01/23 02:18:27;;;;;;;15.63;2.67;;;8.00;99.90;;;;;;5115011;28;20537;-47
2024/01/23 02:20:52;;;;;;;13.03;2.00;;;7.90;99.90;;;;;;5114942;28;20166;-44
2024/01/23 02:23:18;;;;;;;17.37;3.00;;;7.90;99.90;;;;;;5115182;28;20199;-47
2024/01/23 02:25:44;;;;;;;15.80;2.50;;;7.90;99.90;;;;;;5114828;28;20665;-45
2024/01/23 02:28:11;;;;;;;15.60;3.23;;;7.90;99.90;;;;;;5115232;28;20171;-46
2024/01/23 02:30:37;;;;;;;16.87;2.63;;;7.90;99.90;;;;;;5115028;28;20185;-45
2024/01/23 02:33:04;;;;;;;18.40;3.60;;;7.90;99.90;;;;;;5114635;28;20183;-45
2024/01/23 02:35:30;;;;;;;18.13;3.20;;;7.80;99.90;;;;;;5096712;28;20215;-46
2024/01/23 02:37:56;;;;;;;21.03;3.57;;;7.80;99.90;;;;;;5114875;28;20685;-44
2024/01/23 02:40:22;;;;;;;15.90;2.23;;;7.80;99.90;;;;;;5096379;28;20179;-46
2024/01/23 02:42:48;;;;;;;8.83;2.10;;;7.80;99.90;;;;;;5114738;28;20634;-44
2024/01/23 02:45:17;;;;;;;17.93;3.57;;;7.70;99.90;;;;;;5114970;28;20265;-46
2024/01/23 02:47:46;;;;;;;10.70;2.47;;;7.70;99.90;;;;;;5114438;28;20270;-44
2024/01/23 02:50:13;;;;;;;17.20;2.73;;;7.70;99.90;;;;;;5096520;28;20187;-46
2024/01/23 02:52:39;;;;;;;17.03;2.87;;;7.70;99.90;;;;;;5114583;28;20223;-46
2024/01/23 02:55:04;;;;;;;20.27;2.67;;;7.70;99.90;;;;;;5096733;28;20191;-46
2024/01/23 02:57:30;;;;;;;12.60;2.27;;;7.60;99.90;;;;;;5114737;28;20664;-45
2024/01/23 02:59:57;;;;;;;12.23;2.30;;;7.60;99.90;;;;;;5114506;28;20183;-44
2024/01/23 03:02:23;;;;;;;15.80;2.90;;;7.60;99.90;;;;;;5114197;28;20200;-44
2024/01/23 03:04:49;;;;;;;24.27;3.37;;;7.60;99.90;;;;;;5114117;28;20212;-45
2024/01/23 03:07:15;;;;;;;20.67;3.10;;;7.50;99.90;;;;;;5114306;28;20205;-46
2024/01/23 03:09:41;;;;;;;18.60;3.50;;;7.50;99.90;;;;;;5096525;28;20579;-46
2024/01/23 03:12:23;;;;;;;18.27;2.60;;;7.50;99.90;;;;;;5113926;28;20214;-45
2024/01/23 03:14:50;;;;;;;22.73;3.60;;;7.40;99.90;;;;;;5114337;28;20190;-46
2024/01/23 03:17:17;;;;;;;22.87;3.07;;;7.40;99.90;;;;;;5113950;28;20675;-47
2024/01/23 03:19:43;;;;;;;15.47;3.10;;;7.40;99.90;;;;;;5113938;28;20209;-46
2024/01/23 03:22:09;;;;;;;30.67;3.97;;;7.30;99.90;;;;;;5114155;28;20184;-45
2024/01/23 03:24:37;;;;;;;16.30;2.23;;;7.30;99.90;;;;;;5113950;28;20547;-45
2024/01/23 03:27:06;;;;;;;18.93;2.87;;;7.40;99.90;;;;;;5113820;28;20281;-46
2024/01/23 03:29:41;;;;;;;16.27;3.63;;;7.30;99.90;;;;;;5114093;28;20190;-47
2024/01/23 03:32:06;;;;;;;29.30;4.10;;;7.30;99.90;;;;;;5113797;28;20208;-47
2024/01/23 03:37:55;;;;;;;11.43;2.20;;;7.20;99.90;;;;;;5113775;28;20246;-43
2024/01/23 03:40:20;;;;;;;16.47;3.70;;;7.20;99.90;;;;;;5113666;28;20180;-45
2024/01/23 03:42:46;;;;;;;26.03;3.37;;;7.20;99.90;;;;;;5113637;28;20265;-44
2024/01/23 03:45:12;;;;;;;18.00;3.10;;;7.20;99.90;;;;;;5113848;28;20649;-44
2024/01/23 03:47:37;;;;;;;10.50;1.90;;;7.20;99.90;;;;;;5113722;28;20642;-44
2024/01/23 03:50:03;;;;;;;20.80;3.70;;;7.10;99.90;;;;;;5113673;28;20261;-45
2024/01/23 03:52:29;;;;;;;21.80;3.00;;;7.10;99.90;;;;;;5113526;28;20206;-46
2024/01/23 03:54:55;;;;;;;12.43;2.43;;;7.10;99.90;;;;;;5113629;28;20196;-46
2024/01/23 03:57:21;;;;;;;14.17;2.20;;;7.00;99.90;;;;;;5113495;28;20650;-45
2024/01/23 03:59:50;;;;;;;10.43;2.10;;;7.00;99.90;;;;;;5113855;28;20190;-45
2024/01/23 04:02:21;;;;;;;15.23;2.77;;;7.00;99.90;;;;;;5113698;28;20185;-45
2024/01/23 04:04:46;;;;;;;15.90;3.23;;;7.00;99.90;;;;;;5095705;28;20216;-45
2024/01/23 04:07:12;;;;;;;18.47;3.93;;;6.90;99.90;;;;;;5113368;28;20234;-42
2024/01/23 04:09:39;;;;;;;14.63;2.23;;;6.90;99.90;;;;;;5113560;28;20192;-44
2024/01/23 04:12:05;;;;;;;16.90;3.53;;;6.80;99.90;;;;;;5113238;28;20615;-46
2024/01/23 04:14:32;;;;;;;18.10;3.47;;;6.80;99.90;;;;;;5113717;28;20181;-44
2024/01/23 04:16:58;;;;;;;21.53;3.67;;;6.80;99.90;;;;;;5116060;28;20214;-44
2024/01/23 04:19:23;;;;;;;20.53;3.50;;;6.70;99.90;;;;;;5117526;28;20190;-43
2024/01/23 04:21:52;;;;;;;16.50;3.03;;;6.60;99.90;;;;;;5117587;28;20653;-46
2024/01/23 04:24:18;;;;;;;10.17;2.27;;;6.60;99.90;;;;;;5117493;28;20218;-45
2024/01/23 04:26:47;;;;;;;13.40;2.10;;;6.60;99.90;;;;;;5117149;28;20233;-44
2024/01/23 04:29:14;;;;;;;13.03;2.47;;;6.50;99.90;;;;;;5117191;28;20652;-44
2024/01/23 04:31:45;;;;;;;5.77;2.00;;;6.50;99.90;;;;;;5115107;28;20681;-43
2024/01/23 04:34:12;;;;;;;19.43;2.93;;;6.50;99.90;;;;;;5117078;28;20174;-44
2024/01/23 04:36:38;;;;;;;14.93;2.47;;;6.40;99.90;;;;;;5117336;28;20198;-44
2024/01/23 04:39:05;;;;;;;11.70;2.47;;;6.40;99.90;;;;;;5117001;28;20177;-46
2024/01/23 04:41:31;;;;;;;13.47;3.23;;;6.40;99.90;;;;;;5117252;28;20638;-46
2024/01/23 04:43:59;;;;;;;17.10;2.93;;;6.40;99.90;;;;;;5098874;28;20220;-46
2024/01/23 04:46:25;;;;;;;18.30;2.80;;;6.30;99.90;;;;;;5098479;28;20202;-47
2024/01/23 04:48:50;;;;;;;19.40;3.07;;;6.30;99.90;;;;;;5117017;28;20227;-45
2024/01/23 04:51:16;;;;;;;15.23;3.57;;;6.30;99.90;;;;;;5116665;28;20560;-44
2024/01/23 04:53:41;;;;;;;13.50;1.70;;;6.30;99.90;;;;;;5116945;28;20178;-46
2024/01/23 04:56:07;;;;;;;13.70;2.63;;;6.30;99.90;;;;;;5098415;28;20198;-45
2024/01/23 04:58:51;;;;;;;17.83;2.97;;;6.30;99.90;;;;;;5116671;28;20166;-45
2024/01/23 05:01:17;;;;;;;8.83;1.90;;;6.20;99.90;;;;;;5116853;28;20222;-45
2024/01/23 05:03:43;;;;;;;15.60;2.63;;;6.20;99.90;;;;;;5115681;28;20205;-44
2024/01/23 05:06:09;;;;;;;21.43;3.47;;;6.20;99.90;;;;;;5116777;28;20202;-46
2024/01/23 05:09:31;;;;;;;10.00;1.83;;;6.10;99.90;;;;;;5116462;28;20174;-44
2024/01/23 05:12:03;;;;;;;14.97;2.43;;;6.00;99.90;;;;;;5116250;28;20217;-47
2024/01/23 05:14:28;;;;;;;12.73;2.67;;;6.00;99.90;;;;;;5116295;28;20654;-46
2024/01/23 05:16:54;;;;;;;13.13;2.67;;;6.00;99.90;;;;;;5116171;28;20201;-47
2024/01/23 05:19:19;;;;;;;15.53;3.37;;;6.00;99.90;;;;;;5116368;28;20253;-44
2024/01/23 05:21:48;;;;;;;11.60;2.50;;;6.00;99.90;;;;;;5116081;28;20578;-47
2024/01/23 05:24:14;;;;;;;17.30;3.20;;;5.90;99.90;;;;;;5098246;28;20535;-45
2024/01/23 05:26:40;;;;;;;16.77;3.10;;;5.90;99.90;;;;;;5116092;28;20204;-45
2024/01/23 05:29:09;;;;;;;16.30;3.30;;;5.80;99.90;;;;;;5115787;28;20182;-46
2024/01/23 05:31:34;;;;;;;17.60;3.60;;;5.80;99.90;;;;;;5116208;28;20225;-46
2024/01/23 05:34:03;;;;;;;17.97;2.80;;;5.80;99.90;;;;;;5115944;28;20661;-43
2024/01/23 05:36:31;;;;;;;24.47;3.80;;;5.70;99.90;;;;;;5116112;28;20194;-47
2024/01/23 05:38:57;;;;;;;21.80;3.87;;;5.70;99.90;;;;;;5116127;28;20209;-47
2024/01/23 05:41:56;;;;;;;24.40;3.40;;;5.60;99.90;;;;;;5116045;28;20185;-47
2024/01/23 05:44:25;;;;;;;19.13;3.50;;;5.60;99.90;;;;;;5116014;28;20181;-47
2024/01/23 05:46:50;;;;;;;26.83;2.93;;;5.60;99.90;;;;;;5115800;28;20598;-46
2024/01/23 05:49:16;;;;;;;13.17;2.37;;;5.60;99.90;;;;;;5115620;28;20177;-46
2024/01/23 05:51:41;;;;;;;11.00;2.13;;;5.60;99.90;;;;;;5115895;28;20205;-46
2024/01/23 05:54:10;;;;;;;18.00;3.40;;;5.60;99.90;;;;;;5115929;28;20694;-45
2024/01/23 05:56:36;;;;;;;16.63;3.00;;;5.60;99.90;;;;;;5115422;28;20243;-45
2024/01/23 05:59:26;;;;;;;21.87;4.10;;;5.50;99.90;;;;;;5115751;28;20182;-45
2024/01/23 06:01:51;;;;;;;13.30;2.47;;;5.50;99.90;;;;;;5115473;28;20177;-47
2024/01/23 06:04:17;;;;;;;14.63;3.27;;;5.50;99.90;;;;;;5115390;28;20196;-45
2024/01/23 06:06:43;;;;;;;24.20;3.00;;;5.50;99.90;;;;;;5115467;28;20247;-46
2024/01/23 06:09:10;;;;;;;14.73;2.50;;;5.50;99.90;;;;;;5115758;28;20180;-45
2024/01/23 06:11:39;;;;;;;16.77;3.37;;;5.40;99.90;;;;;;5115101;28;20236;-46
2024/01/23 06:14:05;;;;;;;11.50;3.30;;;5.40;99.90;;;;;;5115484;28;20163;-45
2024/01/23 06:16:31;;;;;;;15.90;2.30;;;5.40;99.90;;;;;;5115339;28;20244;-45
2024/01/23 06:19:00;;;;;;;14.23;2.57;;;5.40;99.90;;;;;;5115083;28;20210;-45
2024/01/23 06:21:25;;;;;;;15.17;2.87;;;5.40;99.90;;;;;;5115176;28;20184;-44
2024/01/23 06:23:51;;;;;;;23.17;2.97;;;5.40;99.90;;;;;;5115485;28;20169;-44
2024/01/23 06:26:21;;;;;;;22.33;3.03;;;5.40;99.90;;;;;;5115083;28;20200;-43
2024/01/23 06:28:46;;;;;;;21.00;2.83;;;5.40;99.90;;;;;;5114890;28;20185;-43
2024/01/23 06:31:12;;;;;;;13.77;2.97;;;5.40;99.90;;;;;;5096655;28;20201;-46
2024/01/23 06:33:38;;;;;;;19.40;2.90;;;5.40;99.90;;;;;;5115022;28;20189;-47
2024/01/23 06:36:04;;;;;;;14.00;1.73;;;5.40;99.90;;;;;;5114865;28;20661;-46
2024/01/23 06:38:30;;;;;;;14.03;2.93;;;5.40;99.90;;;;;;5114570;28;20180;-46
2024/01/23 06:41:07;;;;;;;16.37;3.70;;;5.40;99.90;;;;;;5096301;28;20176;-44
2024/01/23 06:43:33;;;;;;;11.47;2.50;;;5.40;99.90;;;;;;5114572;28;20176;-45
2024/01/23 06:46:00;;;;;;;5.40;1.23;;;5.50;99.90;;;;;;5114377;28;20193;-47
2024/01/23 06:48:25;;;;;;;14.57;2.70;;;5.40;99.90;;;;;;5114688;28;20173;-45
2024/01/23 06:50:51;;;;;;;8.20;1.80;;;5.40;99.90;;;;;;5114319;28;20180;-45
2024/01/23 06:53:19;;;;;;;15.97;3.57;;;5.40;99.90;;;;;;5114612;28;20180;-45
2024/01/23 06:55:45;;;;;;;18.40;3.20;;;5.40;99.90;;;;;;5114670;28;20193;-44
2024/01/23 06:58:11;;;;;;;19.93;3.90;;;5.40;99.90;;;;;;5114616;28;20188;-44
2024/01/23 07:00:38;;;;;;;13.97;3.40;;;5.40;99.90;;;;;;5096850;28;20181;-46
2024/01/23 07:03:03;;;;;;;18.47;3.03;;;5.40;99.90;;;;;;5114524;28;20182;-45
2024/01/23 07:05:32;;;;;;;12.77;2.50;;;5.40;99.90;;;;;;5114043;28;20608;-44
2024/01/23 07:08:02;;;;;;;5.87;1.47;;;5.40;99.90;;;;;;5114452;28;20196;-44
2024/01/23 07:10:29;;;;;;;11.90;2.27;;;5.30;99.90;;;;;;5114282;28;20192;-43
2024/01/23 07:12:55;;;;;;;11.47;2.83;;;5.30;99.90;;;;;;5096247;28;20213;-42
2024/01/23 07:15:21;;;;;;;11.57;1.83;;;5.30;99.90;;;;;;5113934;28;20289;-46
2024/01/23 07:17:47;;;;;;;11.00;2.57;;;5.30;99.90;;;;;;5114286;28;20263;-45
2024/01/23 07:20:13;;;;;;;23.03;3.20;;;5.30;99.90;;;;;;5113992;28;20170;-44
2024/01/23 07:22:41;;;;;;;14.03;2.97;;;5.20;99.90;;;;;;5114093;28;20189;-45
2024/01/23 07:25:07;;;;;;;16.43;2.67;;;5.20;99.90;;;;;;5113806;28;20181;-46
2024/01/23 07:27:33;;;;;;;8.90;2.73;;;5.20;99.90;;;;;;5114127;28;20178;-45
2024/01/23 07:29:58;;;;;;;23.87;2.90;;;5.20;99.90;;;;;;5113857;28;20640;-45
2024/01/23 07:32:27;;;;;;;23.33;3.23;;;5.10;99.90;;;;;;5113732;28;20558;-46
2024/01/23 07:34:55;;;;;;;7.70;2.03;;;5.10;99.90;;;;;;5095498;28;20668;-45
2024/01/23 07:37:24;;;;;;;19.77;2.60;;;5.10;99.90;;;;;;5113624;28;20275;-45
2024/01/23 07:39:51;;;;;;;14.60;2.73;;;5.10;99.90;;;;;;5095988;28;20184;-46
2024/01/23 07:42:17;;;;;;;16.17;3.27;;;5.10;99.90;;;;;;5095484;28;20188;-46
2024/01/23 07:44:47;;;;;;;13.13;2.03;;;5.10;99.90;;;;;;5078737;28;20185;-47
2024/01/23 07:47:12;;;;;;;24.63;3.10;;;5.20;99.90;;;;;;5113662;28;20267;-45
2024/01/23 07:49:38;;;;;;;17.10;2.77;;;5.20;99.90;;;;;;5113101;28;20200;-45
2024/01/23 07:52:04;;;;;;;20.27;3.00;;;5.20;99.90;;;;;;5099367;28;20254;-46
2024/01/23 07:54:32;;;;;;;16.90;2.83;;;5.20;99.90;;;;;;5099764;28;20195;-46
2024/01/23 07:56:58;;;;;;;21.27;2.70;;;5.20;99.90;;;;;;5117744;28;20223;-47
2024/01/23 07:59:24;;;;;;;14.13;2.40;;;5.20;99.90;;;;;;5118126;28;20173;-44
2024/01/23 08:01:49;;;;;;;11.40;2.57;;;5.20;99.90;;;;;;5117751;28;20172;-45
2024/01/23 08:04:18;;;;;;;10.30;1.90;;;5.20;99.90;;;;;;5117732;28;20697;-46
2024/01/23 08:06:44;;;;;;;17.17;3.07;;;5.20;99.90;;;;;;5117553;28;20681;-47
2024/01/23 08:09:10;;;;;;;21.73;2.50;;;5.20;99.90;;;;;;5117567;28;20180;-44
2024/01/23 08:11:36;;;;;;;19.13;2.83;;;5.20;99.90;;;;;;5117246;28;20253;-47
2024/01/23 08:14:05;;;;;;;15.83;3.00;;;5.30;99.90;;;;;;5117570;28;20271;-44
2024/01/23 08:16:36;;;;;;;19.87;3.17;;;5.30;99.90;;;;;;5117378;28;20200;-45
2024/01/23 08:19:02;;;;;;;15.20;2.40;;;5.30;99.90;;;;;;5117326;28;20169;-45
2024/01/23 08:21:28;;;;;;;24.30;3.63;;;5.30;99.90;;;;;;5117579;28;20183;-46
2024/01/23 08:23:55;;;;;;;18.50;2.73;;;5.30;99.90;;;;;;5117494;28;20176;-45
2024/01/23 08:26:20;;;;;;;19.93;3.60;;;5.30;99.90;;;;;;5117110;28;20207;-45
2024/01/23 08:28:46;;;;;;;17.60;3.07;;;5.30;99.90;;;;;;5117092;28;20259;-46
2024/01/23 08:31:24;;;;;;;11.57;2.37;;;5.30;99.90;;;;;;5117028;28;20292;-45
2024/01/23 08:33:50;;;;;;;11.43;2.53;;;5.40;99.90;;;;;;5117030;28;20178;-46
2024/01/23 08:36:16;;;;;;;18.70;4.00;;;5.40;99.90;;;;;;5098773;28;20195;-47
2024/01/23 08:38:43;;;;;;;23.20;4.13;;;5.40;99.90;;;;;;5117305;28;20169;-45
2024/01/23 08:41:09;;;;;;;11.60;2.80;;;5.50;99.90;;;;;;5116921;28;20200;-45
2024/01/23 08:43:37;;;;;;;19.87;2.83;;;5.50;99.90;;;;;;5116337;28;20203;-45
2024/01/23 08:46:04;;;;;;;14.77;2.90;;;5.50;99.90;;;;;;5117015;28;20671;-44
2024/01/23 08:48:32;;;;;;;15.93;3.20;;;5.50;99.90;;;;;;5116792;28;20237;-45
2024/01/23 08:50:58;;;;;;;21.60;3.67;;;5.60;99.90;;;;;;5116709;28;20185;-44
2024/01/23 08:53:24;;;;;;;20.97;3.83;;;5.60;99.90;;;;;;5116949;28;20173;-44
2024/01/23 08:55:53;;;;;;;21.63;3.57;;;5.70;99.90;;;;;;5116940;28;20648;-45
2024/01/23 08:58:22;;;;;;;16.00;3.43;;;5.80;99.90;;;;;;5116886;28;20191;-45
2024/01/23 09:00:49;;;;;;;19.30;3.13;;;5.80;99.90;;;;;;5116573;28;20178;-45
2024/01/23 09:03:15;;;;;;;24.17;3.43;;;5.80;99.90;;;;;;5116150;28;20614;-45
2024/01/23 09:05:41;;;;;;;21.97;3.57;;;5.90;99.90;;;;;;5116636;28;20277;-46
2024/01/23 09:08:12;;;;;;;17.63;3.40;;;5.90;99.90;;;;;;5116631;28;20279;-45
2024/01/23 09:11:07;;;;;;;17.43;3.37;;;6.00;99.90;;;;;;5116384;28;20224;-45
2024/01/23 09:13:33;;;;;;;12.67;2.07;;;6.00;99.90;;;;;;5116193;28;20292;-44
2024/01/23 09:15:59;;;;;;;23.87;3.90;;;6.10;99.90;;;;;;5116441;28;20251;-45
2024/01/23 09:18:25;;;;;;;17.90;3.37;;;6.10;99.90;;;;;;5116415;28;20269;-47
2024/01/23 09:20:50;;;;;;;22.17;2.87;;;6.10;99.90;;;;;;5116478;28;20255;-44
2024/01/23 09:23:22;;;;;;;20.73;3.20;;;6.10;99.90;;;;;;5116123;28;20206;-44
2024/01/23 09:25:54;;;;;;;26.87;4.50;;;6.20;99.90;;;;;;5116178;28;20200;-44
2024/01/23 09:28:20;;;;;;;21.60;3.17;;;6.30;99.90;;;;;;5116001;28;20190;-45
2024/01/23 09:30:45;;;;;;;26.27;4.43;;;6.30;99.90;;;;;;5115963;28;20632;-46
2024/01/23 09:33:17;;;;;;;17.30;3.80;;;6.40;99.90;;;;;;5116389;28;20557;-45
2024/01/23 09:35:46;;;;;;;19.47;4.03;;;6.40;99.90;;;;;;5115798;28;20193;-48
2024/01/23 09:38:12;;;;;;;17.77;2.83;;;6.40;99.90;;;;;;5115699;28;20580;-46
2024/01/23 09:40:38;;;;;;;14.97;3.33;;;6.50;99.90;;;;;;5116359;28;20216;-46
2024/01/23 09:43:03;;;;;;;25.23;3.87;;;6.50;99.90;;;;;;5098136;28;20276;-46
2024/01/23 09:45:30;;;;;;;6.23;1.37;;;6.60;99.90;;;;;;5115684;28;20212;-45
2024/01/23 09:47:56;;;;;;;29.77;3.30;;;6.60;99.90;;;;;;5115649;28;20174;-46
2024/01/23 09:50:38;;;;;;;16.53;3.27;;;6.70;99.90;;;;;;5115586;28;20189;-46
2024/01/23 09:53:06;;;;;;;18.97;3.70;;;6.80;99.90;;;;;;5116366;28;20285;-45
2024/01/23 09:55:32;;;;;;;22.63;3.50;;;6.80;99.90;;;;;;5115713;28;20228;-46
2024/01/23 09:57:58;;;;;;;28.27;3.77;;;6.90;99.90;;;;;;5115518;28;20652;-45
2024/01/23 10:00:24;;;;;;;24.83;4.27;;;7.00;99.90;;;;;;5115650;28;20193;-45
2024/01/23 10:02:53;;;;;;;12.60;2.73;;;7.00;99.90;;;;;;5115415;28;20244;-46
2024/01/23 10:05:19;;;;;;;23.67;3.73;;;7.10;99.90;;;;;;5115197;28;20174;-47
2024/01/23 10:07:45;;;;;;;24.27;4.20;;;7.10;99.90;;;;;;5115522;28;20185;-47
2024/01/23 10:10:15;;;;;;;24.87;3.77;;;7.20;99.90;;;;;;5095817;28;20239;-46
2024/01/23 10:12:45;;;;;;;19.60;3.27;;;7.50;99.90;;;;;;5115079;28;20218;-45
2024/01/23 10:15:16;;;;;;;29.80;4.23;;;7.30;99.90;;;;;;5114311;28;20173;-46
2024/01/23 10:17:45;;;;;;;19.60;3.50;;;7.40;99.90;;;;;;5115356;28;20175;-46
2024/01/23 10:20:12;;;;;;;24.40;3.83;;;7.40;99.90;;;;;;5115033;28;20190;-47
2024/01/23 10:22:37;;;;;;;21.63;4.23;;;7.50;99.90;;;;;;5096691;28;20231;-47
2024/01/23 10:25:20;;;;;;;22.03;3.80;;;7.50;99.90;;;;;;5115054;28;20185;-46
2024/01/23 10:27:53;;;;;;;21.00;3.60;;;7.60;99.90;;;;;;5114821;28;20714;-46
2024/01/23 10:30:18;;;;;;;25.37;4.33;;;7.60;99.90;;;;;;5114829;28;20274;-47
2024/01/23 10:32:45;;;;;;;17.37;3.87;;;7.70;99.90;;;;;;5114698;28;20291;-47
2024/01/23 10:35:11;;;;;;;22.90;4.13;;;7.70;99.90;;;;;;5096873;28;20246;-44
2024/01/23 10:37:38;;;;;;;22.97;3.43;;;7.80;99.90;;;;;;5114732;28;20202;-46
2024/01/23 10:40:05;;;;;;;22.40;3.67;;;7.80;99.90;;;;;;5114738;28;20643;-45
2024/01/23 10:42:34;;;;;;;26.57;3.90;;;7.80;99.90;;;;;;5114650;28;20650;-44
2024/01/23 10:45:01;;;;;;;25.73;4.37;;;7.90;99.90;;;;;;5114621;28;20667;-47
2024/01/23 10:47:28;;;;;;;24.90;4.33;;;7.90;99.90;;;;;;5114723;28;20202;-45
2024/01/23 10:49:53;;;;;;;23.70;3.60;;;7.90;99.90;;;;;;5114707;28;20547;-47
2024/01/23 10:52:19;;;;;;;24.47;4.47;;;8.00;99.90;;;;;;5114610;28;20198;-47
2024/01/23 10:54:51;;;;;;;27.90;3.40;;;8.00;99.90;;;;;;5114322;28;20237;-45
2024/01/23 10:57:24;;;;;;;21.93;3.53;;;8.10;99.90;;;;;;5114561;28;20199;-46
2024/01/23 10:59:50;;;;;;;27.37;4.20;;;8.20;99.90;;;;;;5114576;28;20256;-46
2024/01/23 11:02:28;;;;;;;20.33;4.10;;;8.20;99.90;;;;;;5114729;28;20604;-46
2024/01/23 11:04:53;;;;;;;21.57;4.40;;;8.30;99.90;;;;;;5114545;28;20178;-46
2024/01/23 11:07:36;;;;;;;27.00;4.07;;;8.40;99.90;;;;;;5114412;28;20321;-46
2024/01/23 11:10:33;;;;;;;26.60;4.47;;;8.50;99.90;;;;;;5114449;28;20193;-45
2024/01/23 11:13:22;;;;;;;30.20;4.23;;;8.60;99.90;;;;;;5113972;28;20216;-45
2024/01/23 11:15:50;;;;;;;23.23;5.47;;;8.60;99.90;;;;;;5114184;28;20195;-48
2024/01/23 11:18:32;;;;;;;19.33;4.13;;;8.60;99.90;;;;;;5114312;28;20322;-47
2024/01/23 11:21:10;;;;;;;18.27;3.20;;;8.70;99.90;;;;;;5114031;28;20167;-45
2024/01/23 11:23:36;;;;;;;18.00;3.80;;;8.70;99.90;;;;;;5114315;28;20159;-46
2024/01/23 11:26:22;;;;;;;15.73;3.40;;;8.60;99.90;;;;;;5113757;28;20190;-46
2024/01/23 11:28:58;;;;;;;27.43;3.70;;;8.60;99.90;;;;;;5114324;28;20161;-45
2024/01/23 11:31:26;;;;;;;23.80;4.63;;;8.60;99.90;;;;;;5114201;28;20220;-45
2024/01/23 11:33:53;;;;;;;28.53;3.77;;;8.60;99.90;;;;;;5096005;28;20203;-47
2024/01/23 11:36:26;;;;;;;20.13;3.50;;;8.60;99.90;;;;;;5095871;28;20193;-45
2024/01/23 11:39:00;;;;;;;15.07;3.33;;;8.60;99.90;;;;;;5113920;28;20174;-44
2024/01/23 11:41:27;;;;;;;18.77;4.20;;;8.60;99.90;;;;;;5095881;28;20626;-45
2024/01/23 11:44:16;;;;;;;20.27;3.10;;;8.60;99.90;;;;;;5113725;28;20630;-45
2024/01/23 11:46:43;;;;;;;27.23;3.97;;;8.70;99.90;;;;;;5096224;28;20202;-45
2024/01/23 11:49:10;;;;;;;19.43;4.23;;;8.70;99.90;;;;;;5113685;28;20209;-46
2024/01/23 11:51:37;;;;;;;31.00;4.83;;;8.70;99.90;;;;;;5113958;28;20209;-45
2024/01/23 11:54:09;;;;;;;24.00;4.20;;;8.70;99.90;;;;;;5114068;28;20166;-46
2024/01/23 11:56:40;;;;;;;24.33;4.40;;;8.80;99.90;;;;;;5113807;28;20190;-46
2024/01/23 11:59:10;;;;;;;28.77;4.90;;;8.80;99.90;;;;;;5114479;28;20552;-46
2024/01/23 12:01:40;;;;;;;25.47;4.70;;;8.90;99.90;;;;;;5114069;28;20169;-46
2024/01/23 12:04:06;;;;;;;25.47;4.10;;;8.90;99.90;;;;;;5113819;28;20178;-46
2024/01/23 12:06:35;;;;;;;26.77;3.97;;;8.90;99.90;;;;;;5113593;28;20726;-45
2024/01/23 12:09:04;;;;;;;25.23;4.17;;;8.90;99.90;;;;;;5113560;28;20204;-45
2024/01/23 12:11:30;;;;;;;17.33;3.37;;;8.90;99.90;;;;;;5115744;28;20292;-46
2024/01/23 12:13:59;;;;;;;21.73;4.50;;;8.90;99.90;;;;;;5118315;28;20159;-44
2024/01/23 12:16:30;;;;;;;23.67;4.30;;;9.00;99.90;;;;;;5120637;28;20194;-48
2024/01/23 12:18:57;;;;;;;25.57;3.83;;;9.00;99.90;;;;;;5117714;28;20181;-46
2024/01/23 12:21:22;;;;;;;26.80;4.27;;;9.00;99.90;;;;;;5117052;28;20170;-44
2024/01/23 12:23:49;;;;;;;29.70;3.87;;;9.00;99.90;;;;;;5113560;28;20196;-46
2024/01/23 12:26:17;;;;;;;25.80;3.53;;;9.00;99.90;;;;;;5113595;28;20198;-45
2024/01/23 12:28:48;;;;;;;24.83;3.67;;;9.00;99.90;;;;;;5113308;28;20181;-47
2024/01/23 12:31:17;;;;;;;18.07;4.07;;;9.10;99.90;;;;;;5113245;28;20197;-47
2024/01/23 12:33:43;;;;;;;24.87;4.50;;;9.10;99.90;;;;;;5113649;28;20190;-44
2024/01/23 12:36:16;;;;;;;20.57;4.43;;;9.10;99.90;;;;;;5113544;28;20217;-46
2024/01/23 12:38:41;;;;;;;20.53;4.07;;;9.20;99.90;;;;;;5116828;28;20170;-44
2024/01/23 12:41:16;;;;;;;27.03;4.70;;;9.20;99.90;;;;;;5117428;28;20173;-47
2024/01/23 12:43:41;;;;;;;27.03;5.03;;;9.20;99.90;;;;;;5117098;28;20645;-46
2024/01/23 12:46:15;;;;;;;20.43;3.87;;;9.20;99.90;;;;;;5117005;28;20190;-47
2024/01/23 12:48:41;;;;;;;30.83;4.73;;;9.20;99.90;;;;;;5116850;28;20163;-47
2024/01/23 12:51:07;;;;;;;30.53;5.20;;;9.30;99.90;;;;;;5115942;28;20673;-47
2024/01/23 12:53:36;;;;;;;22.47;4.23;;;9.30;99.90;;;;;;5117237;28;20209;-48
2024/01/23 12:56:02;;;;;;;20.50;3.47;;;9.30;99.90;;;;;;5116605;28;20263;-47